Disclaimer

Please do not use the information listed here in-flight or in-navigation, as they are not provided to us by the airports but are provided by volunteers, so they might be outdated.

Search


Regions


Airport information page

Radio informations:
BUDAPEST INFO - 133.3 MHz
INFO - 125.9 MHz

Airport informations:
Latitude: 47° 29' 20.10" N
Longitude: 021° 36' 55.20" E
Elevation: 359 feet - 109 meters
Operating hours: Remarks
Operating agency: Civil government, landing fees and diplomatic clearance may be required
Timezone: UTC+1(+2DT) - Last Sunday in March to last Sunday in October
Fuel: Jet A1, without icing nhibitor.

115/145 octane gasoline, leaded, MIL-L-5572F (PURPLE)

100/130 MIL Spec, low lead, aviation gasoline (BLUE)

Runway information:
05R/23L - 8196 x 131 feet< - >2498 x 40 meters
05L/23R - 8087 x 230 feet< - >2465 x 70 meters

Recent METARs:
LHDC 180915Z 01002KT CAVOK 05/M03 Q1026 NOSIG
LHDC 180945Z 02005KT CAVOK 06/M03 Q1026 NOSIG
LHDC 181015Z 04003KT CAVOK 06/M03 Q1025 NOSIG

Airport on the map: